Time;durP1;ratioP1;P1;durP2;ratioP2;P2;SDS_P1;SDS_P2;PMS_P1;PMS_P2;Temp;Humidity;BMP_temperature;BMP_pressure;BME280_temperature;BME280_humidity;BME280_pressure;Samples;Min_cycle;Max_cycle;Signal;HPM_P1;HPM_P2
2022/07/24 00:01:33;;;;;;;8.35;5.53;;;16.00;99.90;;;;;;5094179;28;20052;-75
2022/07/24 00:03:59;;;;;;;8.60;5.68;;;16.00;99.90;;;;;;5074848;28;20040;-74
2022/07/24 00:06:25;;;;;;;8.43;5.30;;;15.90;99.90;;;;;;5076333;28;20452;-76
2022/07/24 00:08:51;;;;;;;7.50;5.70;;;15.90;99.90;;;;;;5044445;28;20062;-74
2022/07/24 00:11:17;;;;;;;7.70;5.90;;;15.90;99.90;;;;;;5092830;28;20119;-75
2022/07/24 00:13:43;;;;;;;8.13;5.68;;;15.90;99.90;;;;;;5075724;28;20039;-75
2022/07/24 00:16:08;;;;;;;8.85;5.80;;;15.90;99.90;;;;;;5093385;28;20040;-74
2022/07/24 00:18:34;;;;;;;8.25;5.63;;;15.80;99.90;;;;;;5058824;28;20044;-75
2022/07/24 00:21:00;;;;;;;9.68;5.75;;;15.80;99.90;;;;;;5075273;28;20048;-75
2022/07/24 00:23:27;;;;;;;8.10;5.68;;;15.80;99.90;;;;;;5075448;28;20054;-75
2022/07/24 00:25:52;;;;;;;6.93;5.05;;;15.70;99.90;;;;;;5058722;28;20056;-75
2022/07/24 00:28:19;;;;;;;8.02;5.95;;;15.70;99.90;;;;;;5075652;28;20101;-75
2022/07/24 00:30:44;;;;;;;8.20;5.68;;;15.70;99.90;;;;;;5058536;28;20067;-75
2022/07/24 00:33:10;;;;;;;8.30;5.80;;;15.70;99.90;;;;;;5074749;28;20036;-75
2022/07/24 00:35:36;;;;;;;6.90;5.18;;;15.70;99.90;;;;;;5075637;28;20493;-76
2022/07/24 00:38:02;;;;;;;7.32;5.40;;;15.60;99.90;;;;;;5074763;28;20040;-75
2022/07/24 00:40:29;;;;;;;7.40;5.30;;;15.60;99.90;;;;;;5058977;28;20482;-77
2022/07/24 00:42:56;;;;;;;7.80;4.75;;;15.60;99.90;;;;;;5075596;28;20047;-77
2022/07/24 00:45:22;;;;;;;6.20;3.83;;;15.60;99.90;;;;;;5074932;28;20039;-76
2022/07/24 00:47:48;;;;;;;5.22;3.08;;;15.60;99.90;;;;;;5074256;28;20040;-77
2022/07/24 00:50:14;;;;;;;5.93;3.33;;;15.60;99.90;;;;;;5058523;28;20043;-77
2022/07/24 00:52:40;;;;;;;6.93;4.28;;;15.60;99.90;;;;;;5091868;28;20047;-77
2022/07/24 00:55:06;;;;;;;6.90;4.78;;;15.70;99.90;;;;;;5073518;28;20070;-75
2022/07/24 00:57:32;;;;;;;7.15;4.95;;;15.70;99.90;;;;;;5060640;28;20043;-75
2022/07/24 00:59:58;;;;;;;6.75;5.32;;;15.70;99.90;;;;;;5093172;28;20126;-75
2022/07/24 01:02:24;;;;;;;6.70;4.95;;;15.70;99.90;;;;;;5056963;28;20047;-75
2022/07/24 01:04:50;;;;;;;9.27;5.43;;;15.70;99.90;;;;;;5075178;28;20047;-75
2022/07/24 01:07:16;;;;;;;9.02;4.97;;;15.60;99.90;;;;;;5072687;28;20480;-76
2022/07/24 01:09:43;;;;;;;7.38;5.05;;;15.60;99.90;;;;;;5058388;28;20080;-76
2022/07/24 01:12:09;;;;;;;7.75;5.25;;;15.60;99.90;;;;;;5074698;28;20048;-75
2022/07/24 01:14:35;;;;;;;7.43;5.63;;;15.60;99.90;;;;;;5092593;28;20368;-76
2022/07/24 01:17:00;;;;;;;8.90;5.30;;;15.60;99.90;;;;;;5054894;28;20051;-75
2022/07/24 01:19:26;;;;;;;7.47;5.50;;;15.60;99.90;;;;;;5068011;28;20036;-74
2022/07/24 01:21:53;;;;;;;6.70;5.00;;;15.60;99.90;;;;;;5084372;28;20048;-74
2022/07/24 01:24:20;;;;;;;7.88;5.57;;;15.60;99.90;;;;;;5090914;28;20502;-75
2022/07/24 01:26:47;;;;;;;7.15;5.25;;;15.50;99.90;;;;;;5075033;28;20500;-74
2022/07/24 01:29:14;;;;;;;8.50;5.07;;;15.50;99.90;;;;;;5057311;28;20052;-73
2022/07/24 01:31:40;;;;;;;8.18;5.60;;;15.50;99.90;;;;;;5074572;28;20059;-75
2022/07/24 01:34:06;;;;;;;7.18;5.05;;;15.50;99.90;;;;;;5076400;28;20086;-74
2022/07/24 01:36:32;;;;;;;7.47;5.47;;;15.60;99.90;;;;;;5056604;28;20113;-74
2022/07/24 01:38:58;;;;;;;7.55;5.03;;;15.60;99.90;;;;;;5074273;28;20048;-75
2022/07/24 01:41:24;;;;;;;7.72;5.30;;;15.60;99.90;;;;;;5073339;28;20052;-73
2022/07/24 01:43:50;;;;;;;7.45;5.43;;;15.60;99.90;;;;;;5041717;28;20087;-73
2022/07/24 01:46:15;;;;;;;7.85;5.53;;;15.60;99.90;;;;;;5074849;28;20075;-74
2022/07/24 01:48:42;;;;;;;7.32;5.22;;;15.60;99.90;;;;;;5073618;28;20047;-74
2022/07/24 01:51:08;;;;;;;7.40;5.45;;;15.60;99.90;;;;;;5074584;28;20052;-73
2022/07/24 01:53:34;;;;;;;7.03;4.93;;;15.60;99.90;;;;;;5053867;28;20541;-74
2022/07/24 01:56:00;;;;;;;7.53;5.43;;;15.60;99.90;;;;;;5064201;28;20044;-74
2022/07/24 01:58:26;;;;;;;7.88;5.57;;;15.60;99.90;;;;;;5053811;28;20106;-74
2022/07/24 02:00:52;;;;;;;7.60;5.40;;;15.60;99.90;;;;;;5064181;28;20060;-73
2022/07/24 02:03:18;;;;;;;8.18;5.70;;;15.60;99.90;;;;;;5091343;28;20048;-72
2022/07/24 02:05:44;;;;;;;7.53;5.13;;;15.60;99.90;;;;;;5074841;28;20082;-74
2022/07/24 02:08:10;;;;;;;6.97;4.90;;;15.60;99.90;;;;;;5092151;28;20044;-72
2022/07/24 02:10:35;;;;;;;8.88;5.20;;;15.50;99.90;;;;;;5074136;28;20094;-75
2022/07/24 02:13:01;;;;;;;8.25;5.60;;;15.50;99.90;;;;;;5074772;28;20079;-76
2022/07/24 02:15:27;;;;;;;8.25;5.32;;;15.40;99.90;;;;;;5059635;28;20483;-73
2022/07/24 02:17:56;;;;;;;7.95;5.50;;;15.50;99.90;;;;;;5077280;28;20577;-73
2022/07/24 02:20:22;;;;;;;8.90;5.68;;;15.50;99.90;;;;;;5077224;28;20059;-75
2022/07/24 02:22:48;;;;;;;8.10;5.70;;;15.40;99.90;;;;;;5078312;28;20471;-74
2022/07/24 02:25:14;;;;;;;7.78;6.03;;;15.40;99.90;;;;;;5095948;28;20048;-73
2022/07/24 02:27:39;;;;;;;7.72;5.95;;;15.40;99.90;;;;;;5071476;28;20369;-74
2022/07/24 02:30:12;;;;;;;7.85;5.57;;;15.50;99.90;;;;;;5070227;28;20571;-76
2022/07/24 02:32:38;;;;;;;8.18;5.72;;;15.50;99.90;;;;;;5076625;28;20040;-73
2022/07/24 02:35:04;;;;;;;8.20;5.55;;;15.50;99.90;;;;;;5078120;28;20043;-73
2022/07/24 02:37:30;;;;;;;8.20;5.47;;;15.50;99.90;;;;;;5076666;28;20044;-73
2022/07/24 02:39:56;;;;;;;7.50;5.55;;;15.40;99.90;;;;;;5077970;28;20390;-72
2022/07/24 02:42:21;;;;;;;8.50;5.95;;;15.40;99.90;;;;;;5077187;28;20462;-74
2022/07/24 02:44:47;;;;;;;10.10;6.20;;;15.30;99.90;;;;;;5077741;28;20119;-73
2022/07/24 02:47:13;;;;;;;8.25;5.43;;;15.30;99.90;;;;;;5085887;28;20434;-73
2022/07/24 02:49:39;;;;;;;8.25;5.80;;;15.30;99.90;;;;;;5075058;28;20048;-75
2022/07/24 02:52:05;;;;;;;7.32;5.40;;;15.20;99.90;;;;;;5060840;28;20048;-77
2022/07/24 02:54:30;;;;;;;7.30;4.68;;;15.20;99.90;;;;;;5092953;28;20101;-76
2022/07/24 02:56:56;;;;;;;8.20;5.28;;;15.20;99.90;;;;;;5083100;28;20051;-74
2022/07/24 02:59:22;;;;;;;8.68;5.53;;;15.20;99.90;;;;;;5077174;28;20122;-75
2022/07/24 03:01:48;;;;;;;8.00;5.63;;;15.20;99.90;;;;;;5060024;28;20055;-72
2022/07/24 03:04:13;;;;;;;7.57;5.13;;;15.20;99.90;;;;;;5094662;28;20051;-72
2022/07/24 03:06:39;;;;;;;7.25;5.22;;;15.20;99.90;;;;;;5094867;28;20040;-74
2022/07/24 03:09:05;;;;;;;7.32;5.28;;;15.20;99.90;;;;;;5060440;28;20044;-75
2022/07/24 03:11:30;;;;;;;8.20;6.00;;;15.30;99.90;;;;;;5062848;28;20052;-74
2022/07/24 03:13:56;;;;;;;9.40;5.70;;;15.30;99.90;;;;;;5077007;28;20153;-73
2022/07/24 03:16:22;;;;;;;8.40;5.32;;;15.40;99.90;;;;;;5095077;28;20376;-71
2022/07/24 03:18:50;;;;;;;7.75;5.88;;;15.40;99.90;;;;;;5093728;28;20044;-75
2022/07/24 03:21:17;;;;;;;8.32;6.40;;;15.50;99.90;;;;;;5065181;28;20060;-73
2022/07/24 03:23:43;;;;;;;7.85;5.47;;;15.50;99.90;;;;;;5092310;28;20119;-73
2022/07/24 03:26:09;;;;;;;8.55;5.90;;;15.60;99.90;;;;;;5076819;28;20044;-72
2022/07/24 03:28:35;;;;;;;8.68;5.82;;;15.60;99.90;;;;;;5094469;28;20059;-73
2022/07/24 03:31:01;;;;;;;8.63;5.38;;;15.60;99.90;;;;;;5060457;28;20135;-72
2022/07/24 03:33:28;;;;;;;8.45;5.80;;;15.60;99.90;;;;;;5058798;28;20052;-71
2022/07/24 03:35:55;;;;;;;7.93;5.60;;;15.60;99.90;;;;;;5076994;28;20117;-73
2022/07/24 03:38:21;;;;;;;7.70;5.43;;;15.70;99.90;;;;;;5076774;28;20086;-73
2022/07/24 03:40:46;;;;;;;8.75;5.80;;;15.70;99.90;;;;;;5094291;28;20059;-72
2022/07/24 03:43:12;;;;;;;8.38;6.10;;;15.70;99.90;;;;;;5076355;28;20040;-73
2022/07/24 03:45:38;;;;;;;8.60;6.10;;;15.70;99.90;;;;;;5094395;28;20044;-73
2022/07/24 03:48:04;;;;;;;7.70;5.85;;;15.70;99.90;;;;;;5075515;28;20040;-73
2022/07/24 03:50:30;;;;;;;7.68;5.93;;;15.80;99.90;;;;;;5076465;28;20052;-73
2022/07/24 03:52:57;;;;;;;8.80;5.80;;;15.80;99.90;;;;;;5059505;28;20051;-72
2022/07/24 03:55:22;;;;;;;8.65;5.95;;;15.80;99.90;;;;;;5076225;28;20059;-72
2022/07/24 03:57:48;;;;;;;9.27;5.97;;;15.90;99.90;;;;;;5072984;28;20044;-71
2022/07/24 04:00:14;;;;;;;8.70;6.30;;;15.80;99.90;;;;;;5076394;28;20109;-74
2022/07/24 04:02:40;;;;;;;8.45;5.95;;;15.90;99.90;;;;;;5058776;28;20051;-75
2022/07/24 04:05:08;;;;;;;8.48;6.15;;;15.80;99.90;;;;;;5075781;28;20036;-75
2022/07/24 04:07:35;;;;;;;8.20;6.45;;;15.90;99.90;;;;;;5064530;28;20048;-70
2022/07/24 04:10:02;;;;;;;8.63;6.13;;;16.00;99.90;;;;;;5073478;28;20044;-71
2022/07/24 04:12:28;;;;;;;9.40;6.20;;;16.00;99.90;;;;;;5075684;28;20058;-73
2022/07/24 04:14:53;;;;;;;7.93;5.90;;;16.10;99.90;;;;;;5059144;28;20467;-74
2022/07/24 04:17:19;;;;;;;8.63;6.10;;;16.10;99.90;;;;;;5092962;28;20062;-72
2022/07/24 04:19:45;;;;;;;9.43;6.43;;;16.10;99.90;;;;;;5059260;28;20135;-71
2022/07/24 04:22:10;;;;;;;7.88;6.03;;;16.10;99.90;;;;;;5075495;28;20036;-72
2022/07/24 04:24:36;;;;;;;8.73;6.03;;;16.20;99.90;;;;;;5093912;28;20429;-73
2022/07/24 04:27:02;;;;;;;7.63;5.70;;;16.20;99.90;;;;;;5093643;28;20067;-71
2022/07/24 04:29:27;;;;;;;9.23;5.85;;;16.20;99.90;;;;;;5058789;28;20043;-73
2022/07/24 04:31:53;;;;;;;8.25;6.10;;;16.20;99.90;;;;;;5093762;28;20104;-72
2022/07/24 04:34:19;;;;;;;8.18;5.43;;;16.20;99.90;;;;;;5093126;28;20044;-71
2022/07/24 04:36:44;;;;;;;8.35;5.28;;;16.30;99.90;;;;;;5093815;28;20428;-71
2022/07/24 04:39:10;;;;;;;6.80;5.18;;;16.40;99.90;;;;;;5074857;28;20173;-71
2022/07/24 04:41:36;;;;;;;9.10;5.40;;;16.40;99.90;;;;;;5075681;28;20169;-70
2022/07/24 04:44:02;;;;;;;9.25;5.30;;;16.40;99.90;;;;;;5058498;28;20079;-72
2022/07/24 04:46:28;;;;;;;7.35;5.53;;;16.50;99.90;;;;;;5092296;28;20364;-77
2022/07/24 04:48:53;;;;;;;8.00;5.43;;;16.50;99.90;;;;;;5093009;28;20043;-72
2022/07/24 04:51:19;;;;;;;8.45;5.60;;;16.60;99.90;;;;;;5092800;28;20544;-73
2022/07/24 04:53:46;;;;;;;7.88;5.25;;;16.60;99.90;;;;;;5075368;28;20048;-71
2022/07/24 04:56:12;;;;;;;7.85;5.55;;;16.60;99.90;;;;;;5074559;28;20048;-73
2022/07/24 04:58:37;;;;;;;9.55;5.50;;;16.60;99.90;;;;;;5093312;28;20043;-74
2022/07/24 05:01:03;;;;;;;8.68;5.63;;;16.70;99.90;;;;;;5093460;28;20043;-70
2022/07/24 05:03:29;;;;;;;8.05;5.68;;;16.70;99.90;;;;;;5073960;28;20079;-73
2022/07/24 05:05:54;;;;;;;7.10;5.50;;;16.70;99.90;;;;;;5075383;28;20040;-74
2022/07/24 05:08:20;;;;;;;8.77;5.60;;;16.80;99.90;;;;;;5079442;28;20098;-74
2022/07/24 05:10:46;;;;;;;9.10;5.68;;;16.80;99.90;;;;;;5058739;28;20501;-74
2022/07/24 05:13:12;;;;;;;7.65;5.72;;;16.90;99.90;;;;;;5074658;28;20047;-72
2022/07/24 05:15:37;;;;;;;9.38;5.90;;;17.10;99.90;;;;;;5092846;28;20036;-72
2022/07/24 05:18:03;;;;;;;8.35;5.75;;;17.20;99.90;;;;;;5074099;28;20550;-71
2022/07/24 05:20:29;;;;;;;8.68;5.75;;;17.40;99.90;;;;;;5092130;28;20123;-72
2022/07/24 05:22:55;;;;;;;8.38;5.30;;;17.50;99.90;;;;;;5074789;28;20051;-73
2022/07/24 05:25:20;;;;;;;7.38;5.68;;;17.80;99.90;;;;;;5074438;28;20044;-72
2022/07/24 05:27:46;;;;;;;7.70;5.70;;;18.00;99.90;;;;;;5090874;28;20051;-74
2022/07/24 05:30:12;;;;;;;8.32;5.90;;;18.10;99.90;;;;;;5074789;28;20051;-74
2022/07/24 05:32:38;;;;;;;9.15;5.82;;;18.20;99.90;;;;;;5073716;28;20545;-72
2022/07/24 05:35:04;;;;;;;9.73;6.10;;;18.30;99.90;;;;;;5074923;28;20056;-73
2022/07/24 05:37:30;;;;;;;8.25;5.68;;;18.40;99.90;;;;;;5074132;28;20040;-73
2022/07/24 05:39:56;;;;;;;9.13;5.85;;;18.50;99.90;;;;;;5075165;28;20126;-71
2022/07/24 05:42:21;;;;;;;9.43;6.10;;;18.50;99.90;;;;;;5091912;28;20044;-74
2022/07/24 05:44:47;;;;;;;8.45;5.90;;;18.60;99.90;;;;;;5074928;28;20051;-70
2022/07/24 05:47:13;;;;;;;8.65;6.28;;;18.90;99.90;;;;;;5091900;28;20501;-72
2022/07/24 05:49:38;;;;;;;9.93;6.20;;;19.40;99.90;;;;;;5058328;28;20047;-74
2022/07/24 05:52:04;;;;;;;9.07;5.70;;;19.90;99.90;;;;;;5096875;28;20058;-73
2022/07/24 05:54:30;;;;;;;8.35;5.70;;;20.20;99.90;;;;;;5077994;28;20052;-72
2022/07/24 05:56:55;;;;;;;9.18;5.28;;;20.70;99.90;;;;;;5094070;28;20094;-75
2022/07/24 05:59:21;;;;;;;8.63;5.63;;;21.10;99.90;;;;;;5069080;28;20092;-72
2022/07/24 06:01:47;;;;;;;9.18;5.85;;;21.20;99.90;;;;;;5095715;28;20051;-73
2022/07/24 06:04:12;;;;;;;8.05;5.38;;;21.30;99.90;;;;;;5072435;28;20091;-70
2022/07/24 06:06:38;;;;;;;9.02;5.90;;;21.70;99.90;;;;;;5078251;28;20501;-71
2022/07/24 06:09:04;;;;;;;9.60;6.28;;;22.20;99.90;;;;;;5076750;28;20053;-72
2022/07/24 06:11:30;;;;;;;12.18;5.93;;;22.50;99.90;;;;;;5073354;28;20637;-71
2022/07/24 06:13:56;;;;;;;7.55;5.30;;;22.90;99.90;;;;;;5075145;28;20131;-71
2022/07/24 06:16:21;;;;;;;7.55;5.60;;;23.20;99.90;;;;;;5096003;28;20110;-70
2022/07/24 06:18:47;;;;;;;9.70;5.13;;;23.50;99.90;;;;;;5094932;28;20505;-70
2022/07/24 06:21:13;;;;;;;8.13;5.32;;;24.20;99.10;;;;;;5075531;28;20044;-71
2022/07/24 06:23:38;;;;;;;8.75;5.60;;;24.80;97.70;;;;;;5077701;28;20138;-71
2022/07/24 06:26:04;;;;;;;8.25;5.18;;;25.00;96.00;;;;;;5096379;28;20051;-70
2022/07/24 06:28:30;;;;;;;9.88;6.00;;;25.40;94.80;;;;;;5077552;28;20467;-71
2022/07/24 06:30:57;;;;;;;9.60;6.00;;;25.40;93.80;;;;;;5096162;28;20055;-71
2022/07/24 06:33:22;;;;;;;9.02;5.70;;;25.40;93.10;;;;;;5077110;28;20365;-71
2022/07/24 06:35:48;;;;;;;10.70;6.50;;;25.30;93.40;;;;;;5096051;28;20051;-71
2022/07/24 06:38:15;;;;;;;7.90;5.88;;;25.40;92.70;;;;;;5085220;28;20053;-71
2022/07/24 06:40:41;;;;;;;9.68;6.35;;;25.40;92.30;;;;;;5074133;28;20047;-73
2022/07/24 06:43:07;;;;;;;9.45;6.47;;;25.40;92.50;;;;;;5077525;28;20040;-74
2022/07/24 06:45:33;;;;;;;10.48;6.50;;;25.60;92.00;;;;;;5077807;28;20082;-72
2022/07/24 06:48:02;;;;;;;9.75;6.80;;;25.40;91.80;;;;;;5082655;28;20044;-72
2022/07/24 06:50:29;;;;;;;8.48;6.50;;;25.40;92.20;;;;;;5077281;28;20055;-72
2022/07/24 06:52:54;;;;;;;10.43;7.03;;;25.30;92.70;;;;;;5077013;28;20044;-80
2022/07/24 06:55:20;;;;;;;12.05;7.07;;;25.20;93.00;;;;;;5095538;28;20036;-71
2022/07/24 06:57:46;;;;;;;11.43;7.22;;;25.20;93.20;;;;;;5094894;28;20043;-73
2022/07/24 07:00:12;;;;;;;10.00;7.15;;;25.10;93.70;;;;;;5076791;28;20043;-73
2022/07/24 07:02:38;;;;;;;15.25;8.57;;;25.40;93.60;;;;;;5076103;28;20058;-73
2022/07/24 07:05:06;;;;;;;11.63;8.02;;;25.30;93.10;;;;;;5094491;28;20114;-73
2022/07/24 07:07:32;;;;;;;12.20;8.80;;;25.40;93.00;;;;;;5075486;28;20491;-72
2022/07/24 07:09:58;;;;;;;11.27;8.30;;;25.20;93.20;;;;;;5093428;28;20486;-73
2022/07/24 07:12:24;;;;;;;11.95;8.73;;;25.30;93.20;;;;;;5093785;28;20044;-73
2022/07/24 07:14:49;;;;;;;13.73;9.95;;;25.10;93.30;;;;;;5093850;28;20118;-72
2022/07/24 07:17:15;;;;;;;11.02;9.63;;;25.60;93.70;;;;;;5093358;28;20032;-70
2022/07/24 07:19:42;;;;;;;13.18;10.77;;;25.80;92.90;;;;;;5093536;28;20048;-73
2022/07/24 07:22:09;;;;;;;12.23;10.00;;;25.90;92.20;;;;;;5058409;28;20040;-75
2022/07/24 07:24:34;;;;;;;13.20;9.70;;;26.10;92.30;;;;;;5091163;28;20040;-72
2022/07/24 07:27:00;;;;;;;15.15;11.40;;;26.20;92.20;;;;;;5093633;28;20055;-73
2022/07/24 07:29:26;;;;;;;14.02;11.60;;;26.30;91.30;;;;;;5093090;28;20089;-72
2022/07/24 07:31:52;;;;;;;13.48;12.07;;;26.40;91.20;;;;;;5075916;28;20052;-74
2022/07/24 07:34:18;;;;;;;14.07;10.63;;;26.40;90.40;;;;;;5073721;28;20464;-74
2022/07/24 07:36:43;;;;;;;15.10;12.07;;;26.50;91.00;;;;;;5094350;28;20048;-73
2022/07/24 07:39:09;;;;;;;13.77;10.98;;;26.40;89.90;;;;;;5076642;28;20052;-73
2022/07/24 07:41:35;;;;;;;13.00;9.98;;;26.40;90.50;;;;;;5046402;28;20079;-72
2022/07/24 07:44:01;;;;;;;16.42;10.93;;;26.70;91.20;;;;;;5086992;28;20076;-74
2022/07/24 07:46:27;;;;;;;13.55;10.52;;;26.80;90.60;;;;;;5082666;28;20509;-74
2022/07/24 07:48:53;;;;;;;13.10;10.40;;;27.00;89.80;;;;;;5072450;28;20135;-74
2022/07/24 07:51:19;;;;;;;12.93;11.15;;;27.00;89.10;;;;;;5073715;28;20044;-73
2022/07/24 07:53:45;;;;;;;12.85;10.45;;;27.10;87.60;;;;;;5078490;28;20046;-73
2022/07/24 07:56:11;;;;;;;14.15;10.60;;;27.10;88.00;;;;;;5040879;28;20052;-74
2022/07/24 07:58:37;;;;;;;13.90;11.15;;;27.50;88.30;;;;;;5057742;28;20056;-73
2022/07/24 08:01:03;;;;;;;13.90;11.40;;;27.50;87.10;;;;;;5060422;28;20076;-72
2022/07/24 08:03:28;;;;;;;16.30;11.73;;;27.50;85.90;;;;;;5049909;28;20047;-74
2022/07/24 08:05:54;;;;;;;13.65;11.40;;;27.60;85.60;;;;;;5067570;28;20114;-73
2022/07/24 08:08:20;;;;;;;14.90;10.75;;;27.50;84.80;;;;;;5082500;28;20044;-72
2022/07/24 08:10:45;;;;;;;14.65;10.13;;;27.70;83.50;;;;;;5083712;28;20040;-71
2022/07/24 08:13:12;;;;;;;13.80;10.98;;;27.60;83.80;;;;;;5082173;28;20956;-72
2022/07/24 08:15:38;;;;;;;13.48;11.25;;;27.50;84.60;;;;;;5056605;28;20043;-72
2022/07/24 08:18:04;;;;;;;13.57;10.15;;;27.70;85.70;;;;;;5070020;28;20055;-74
2022/07/24 08:20:30;;;;;;;12.25;10.50;;;27.70;85.50;;;;;;5069431;28;20050;-75
2022/07/24 08:22:56;;;;;;;15.07;11.80;;;28.00;84.90;;;;;;5071904;28;20485;-73
2022/07/24 08:25:22;;;;;;;15.73;12.35;;;27.90;84.00;;;;;;5069111;28;20380;-73
2022/07/24 08:27:48;;;;;;;16.58;11.98;;;27.90;82.90;;;;;;5083759;28;20100;-71
2022/07/24 08:30:14;;;;;;;13.85;11.75;;;27.80;83.70;;;;;;5084318;28;20436;-72
2022/07/24 08:32:40;;;;;;;14.55;12.18;;;28.10;83.50;;;;;;5083934;28;20056;-74
2022/07/24 08:35:07;;;;;;;15.77;12.25;;;28.20;82.20;;;;;;5083774;28;20407;-74
2022/07/24 08:37:37;;;;;;;13.50;10.88;;;28.10;79.30;;;;;;5069130;28;20044;-76
2022/07/24 08:40:03;;;;;;;13.68;10.80;;;28.00;79.80;;;;;;5061747;28;20491;-74
2022/07/24 08:42:30;;;;;;;15.82;10.73;;;27.90;78.00;;;;;;5083005;28;20048;-72
2022/07/24 08:44:56;;;;;;;13.70;9.93;;;27.70;77.90;;;;;;5083558;28;20055;-75
2022/07/24 08:47:22;;;;;;;10.10;7.82;;;27.80;77.50;;;;;;5049388;28;20543;-74
2022/07/24 08:49:52;;;;;;;9.95;6.20;;;27.80;78.10;;;;;;5063410;28;20048;-75
2022/07/24 08:52:21;;;;;;;10.82;7.25;;;27.90;74.50;;;;;;5073327;28;20380;-72
2022/07/24 08:54:47;;;;;;;11.35;7.53;;;28.10;72.60;;;;;;5065232;28;20044;-74
2022/07/24 08:57:13;;;;;;;10.73;5.82;;;28.10;72.90;;;;;;5064306;28;20085;-75
2022/07/24 08:59:39;;;;;;;8.45;5.05;;;28.20;71.30;;;;;;5064681;28;20044;-75
2022/07/24 09:02:05;;;;;;;9.38;4.85;;;28.20;70.30;;;;;;5065425;28;20059;-74
2022/07/24 09:04:34;;;;;;;9.30;5.45;;;28.20;70.10;;;;;;5086908;28;20078;-73
2022/07/24 09:07:02;;;;;;;8.90;5.45;;;28.30;69.50;;;;;;5079891;28;20052;-75
2022/07/24 09:09:27;;;;;;;9.95;4.88;;;28.30;69.70;;;;;;5064952;28;20052;-73
2022/07/24 09:12:12;;;;;;;8.07;4.65;;;28.40;70.40;;;;;;5069330;28;20454;-74
2022/07/24 09:14:41;;;;;;;7.68;4.57;;;28.40;68.70;;;;;;5068072;28;20307;-76
2022/07/24 09:17:14;;;;;;;7.53;4.60;;;28.30;68.90;;;;;;5068127;28;20119;-78
2022/07/24 09:19:51;;;;;;;7.25;4.43;;;28.10;68.40;;;;;;5069701;28;20047;-74
2022/07/24 09:22:27;;;;;;;8.95;4.63;;;28.10;69.90;;;;;;5070736;28;20036;-76
2022/07/24 09:25:10;;;;;;;8.05;4.43;;;28.40;69.00;;;;;;5070236;28;20394;-74
2022/07/24 09:27:38;;;;;;;8.60;4.20;;;28.30;68.40;;;;;;5068352;28;20055;-74
2022/07/24 09:30:05;;;;;;;6.22;3.85;;;28.20;69.10;;;;;;5067449;28;20173;-75
2022/07/24 09:32:31;;;;;;;7.18;3.75;;;28.20;67.50;;;;;;5067954;28;20066;-73
2022/07/24 09:34:57;;;;;;;6.93;3.45;;;28.50;68.70;;;;;;5069677;28;20052;-75
2022/07/24 09:37:26;;;;;;;6.97;3.90;;;28.90;69.10;;;;;;5066755;28;20406;-75
2022/07/24 09:40:04;;;;;;;6.25;3.20;;;29.20;68.10;;;;;;5066922;28;20044;-74
2022/07/24 09:42:38;;;;;;;5.40;2.90;;;29.20;66.90;;;;;;5068485;28;20063;-75
2022/07/24 09:45:05;;;;;;;6.07;3.15;;;29.20;65.50;;;;;;5066888;28;20106;-74
2022/07/24 09:47:34;;;;;;;5.18;2.60;;;29.00;64.00;;;;;;5084070;28;20276;-78
2022/07/24 09:50:15;;;;;;;4.90;2.78;;;28.70;63.80;;;;;;5067897;28;20048;-73
2022/07/24 09:52:42;;;;;;;;;;;28.40;63.50;;;;;;5071451;28;20036;-76
2022/07/24 09:55:23;;;;;;;4.63;2.60;;;28.30;66.10;;;;;;5052490;28;19920;-76
2022/07/24 09:57:49;;;;;;;5.07;2.67;;;28.70;64.50;;;;;;5053355;28;20048;-74
2022/07/24 10:00:15;;;;;;;5.22;2.58;;;28.90;63.90;;;;;;5050204;28;20097;-74
2022/07/24 10:02:43;;;;;;;7.13;2.78;;;29.20;64.00;;;;;;5076385;28;20131;-75
2022/07/24 10:05:11;;;;;;;5.80;2.75;;;29.40;65.30;;;;;;5049483;28;20044;-72
2022/07/24 10:07:38;;;;;;;5.90;2.80;;;29.60;65.70;;;;;;5067728;28;20040;-75
2022/07/24 10:10:04;;;;;;;4.55;2.65;;;29.80;64.60;;;;;;5068586;28;20044;-74
2022/07/24 10:12:31;;;;;;;4.72;2.80;;;29.80;62.70;;;;;;5067221;28;20486;-75
2022/07/24 10:14:59;;;;;;;5.55;2.83;;;29.90;61.10;;;;;;5062478;28;20051;-78
2022/07/24 10:17:38;;;;;;;4.63;2.80;;;29.70;59.30;;;;;;5048407;28;20044;-74
2022/07/24 10:20:05;;;;;;;5.72;2.72;;;29.60;60.00;;;;;;5064454;28;20055;-74
2022/07/24 10:22:43;;;;;;;4.55;2.85;;;29.60;60.00;;;;;;5083142;28;20410;-76
2022/07/24 10:25:14;;;;;;;5.05;2.72;;;29.60;60.40;;;;;;5066969;28;20051;-75
2022/07/24 10:27:42;;;;;;;4.68;2.70;;;29.60;60.70;;;;;;5068066;28;20055;-78
2022/07/24 10:30:10;;;;;;;4.55;2.60;;;29.70;60.30;;;;;;5083704;28;20040;-77
2022/07/24 10:32:37;;;;;;;5.05;2.30;;;29.80;60.00;;;;;;5067493;28;20064;-77
2022/07/24 10:35:25;;;;;;;4.93;2.55;;;29.70;59.70;;;;;;5084714;28;20048;-75
2022/07/24 10:38:16;;;;;;;4.95;2.75;;;29.60;60.60;;;;;;5070735;28;20118;-74
2022/07/24 10:40:48;;;;;;;5.90;2.63;;;29.80;61.00;;;;;;5089478;28;20063;-76
2022/07/24 10:43:16;;;;;;;4.50;2.63;;;29.90;60.00;;;;;;5068338;28;20047;-73
2022/07/24 10:45:43;;;;;;;5.13;2.50;;;29.80;60.10;;;;;;5061142;28;20044;-76
2022/07/24 10:48:21;;;;;;;4.80;2.42;;;29.90;59.80;;;;;;5054211;28;20493;-78
2022/07/24 10:50:59;;;;;;;4.70;2.55;;;30.00;60.70;;;;;;5076697;28;20491;-73
2022/07/24 10:53:31;;;;;;;4.50;2.45;;;30.10;60.40;;;;;;5092342;28;20074;-74
2022/07/24 10:56:16;;;;;;;5.80;2.60;;;30.00;58.70;;;;;;5075665;28;20055;-72
2022/07/24 10:59:08;;;;;;;4.20;2.00;;;30.10;59.60;;;;;;5077010;28;20044;-75
2022/07/24 11:01:44;;;;;;;4.20;2.30;;;30.20;59.00;;;;;;5088280;28;20071;-74
2022/07/24 11:04:36;;;;;;;4.78;2.28;;;30.30;59.60;;;;;;5074377;28;20102;-73
2022/07/24 11:07:12;;;;;;;4.13;2.13;;;30.50;58.60;;;;;;5089997;28;20127;-77
2022/07/24 11:10:07;;;;;;;4.80;2.20;;;30.60;58.50;;;;;;5076749;28;20055;-75
2022/07/24 11:12:42;;;;;;;4.68;2.03;;;30.80;57.60;;;;;;5067232;28;20074;-75
2022/07/24 11:17:52;;;;;;;4.85;2.20;;;31.10;55.00;;;;;;5093795;28;20494;-76
2022/07/24 11:20:22;;;;;;;4.55;2.30;;;30.80;55.30;;;;;;5074393;28;20048;-74
2022/07/24 11:22:54;;;;;;;4.18;2.17;;;30.50;55.50;;;;;;5069350;28;20052;-76
2022/07/24 11:25:23;;;;;;;4.22;2.10;;;30.30;56.50;;;;;;5074387;28;20044;-72
2022/07/24 11:28:12;;;;;;;4.63;2.33;;;30.10;56.80;;;;;;5076670;28;20117;-72
2022/07/24 11:30:43;;;;;;;5.57;2.30;;;29.90;58.20;;;;;;5075251;28;20194;-77
2022/07/24 11:33:12;;;;;;;4.75;2.25;;;29.70;57.90;;;;;;5075807;28;20449;-74
2022/07/24 11:35:38;;;;;;;5.22;2.40;;;29.60;57.50;;;;;;5076100;28;20468;-73
2022/07/24 11:38:07;;;;;;;5.00;2.25;;;29.60;58.60;;;;;;5094780;28;20079;-74
2022/07/24 11:40:33;;;;;;;4.90;2.33;;;29.70;60.10;;;;;;5094234;28;20471;-74
2022/07/24 11:43:02;;;;;;;4.43;2.25;;;29.90;58.40;;;;;;5075346;28;20052;-74
2022/07/24 11:45:28;;;;;;;4.97;2.47;;;30.10;58.60;;;;;;5076390;28;20054;-71
2022/07/24 11:47:55;;;;;;;5.30;2.30;;;30.20;57.60;;;;;;5093649;28;20421;-73
2022/07/24 11:50:23;;;;;;;4.57;2.40;;;30.30;57.20;;;;;;5094512;28;20040;-74
2022/07/24 11:52:49;;;;;;;5.28;2.40;;;30.50;57.90;;;;;;5059378;28;20048;-74
2022/07/24 11:55:21;;;;;;;4.97;2.40;;;30.50;55.70;;;;;;5060000;28;20467;-77
2022/07/24 11:57:49;;;;;;;5.78;2.28;;;30.40;56.80;;;;;;5075150;28;20475;-73
2022/07/24 12:00:19;;;;;;;4.70;2.40;;;30.50;56.40;;;;;;5091456;28;20051;-73
2022/07/24 12:02:52;;;;;;;5.38;2.40;;;30.50;54.40;;;;;;5075530;28;20056;-73
2022/07/24 12:05:29;;;;;;;5.10;2.40;;;30.30;55.40;;;;;;5076282;28;20044;-74
2022/07/24 12:07:56;;;;;;;4.63;2.50;;;30.30;57.10;;;;;;5093786;28;20044;-77
2022/07/24 12:10:23;;;;;;;6.22;2.40;;;30.40;56.50;;;;;;5072684;28;20486;-77
2022/07/24 12:12:51;;;;;;;4.68;2.30;;;30.60;56.00;;;;;;5076151;28;20060;-73
2022/07/24 12:15:17;;;;;;;5.10;2.45;;;30.50;56.00;;;;;;5075536;28;20044;-76
2022/07/24 12:17:56;;;;;;;4.90;2.50;;;30.50;54.60;;;;;;5074993;28;20517;-75
2022/07/24 12:20:24;;;;;;;7.10;2.67;;;30.30;55.60;;;;;;5075079;28;20059;-74
2022/07/24 12:22:50;;;;;;;6.05;2.47;;;30.30;56.50;;;;;;5089920;28;20050;-77
2022/07/24 12:25:16;;;;;;;4.90;2.33;;;30.40;55.90;;;;;;5075972;28;20497;-75
2022/07/24 12:27:43;;;;;;;4.68;2.40;;;30.60;56.50;;;;;;5075564;28;20438;-72
2022/07/24 12:30:26;;;;;;;4.35;2.45;;;30.60;55.00;;;;;;5059069;28;20059;-73
2022/07/24 12:32:56;;;;;;;5.90;2.40;;;30.80;56.10;;;;;;5057413;28;20048;-72
2022/07/24 12:35:22;;;;;;;4.82;2.50;;;30.80;55.30;;;;;;5075725;28;20616;-74
2022/07/24 12:37:48;;;;;;;5.28;2.30;;;30.80;55.80;;;;;;5089419;28;20035;-75
2022/07/24 12:40:29;;;;;;;5.18;2.53;;;30.80;54.30;;;;;;5093680;28;20501;-76
2022/07/24 12:43:12;;;;;;;5.13;2.50;;;30.90;55.10;;;;;;5074841;28;20048;-74
2022/07/24 12:45:39;;;;;;;5.35;2.60;;;30.80;54.50;;;;;;5069052;28;20056;-72
2022/07/24 12:48:21;;;;;;;4.75;2.40;;;30.90;54.20;;;;;;5070909;28;20040;-74